Airfield :
LOGIN :

Register | Disclaimer

   EN    FR    IT 

 










Legend :    VFR   Marginal VFR   IFR   Intensive IFR   Very Intensive IFR
Visi :
Ceiling :
>= 8 km
>= 3000ft
5 to 8 km
1000 to 3000 ft
1500m to 5 km
500 to 1000 ft
800 to 1500m
200 to 500 ft
< 800m
< 200 ft
Symbols :   Thunderstorms  Fog  Heavy snow  Heavy precipitations  Wind > 20 kt
SIGMETs :     Misc.  Thunderstorms  Icing  Turbulence  Mountain Waves  Volcanic Ashes






- Airport Elevation : 499 ft
- IATA code : TLS


LFBO - Toulouse / Blagnac

CURRENT METAR :
  • 160430Z AUTO 19005KT 9999 FEW005 OVC023 14/14 Q1009 NOSIG

EXPIRED METARs :
  • 160400Z AUTO 17005KT 9999 BKN004 BKN020 BKN026 14/14 Q1009 BECMG BKN030
  • 160330Z AUTO 17004KT 9999 BKN005 BKN015 BKN020 14/14 Q1009 BECMG BKN030
  • 160300Z AUTO 17004KT 5000 DZ BR BKN004 BKN008 OVC015 14/14 Q1009 BECMG NSW BKN030
  • 160230Z AUTO 19004KT 5000 -RA BR BKN004 BKN009 OVC016 14/14 Q1010 BECMG BKN030
  • 160200Z AUTO 19004KT 4900 -RA BR SCT006 BKN012 BKN038 14/14 Q1010 TEMPO BKN007

TAF AMD TAF LFBO
Valid from the 16 at 02:00 until the 17 at 06:00 UTC


160244Z 1602/1706 19004KT 9999 BKN030
TEMPO 1602/1604 4000 -RA BKN004
BECMG 1607/1609 29010KT
TEMPO 1608/1619 4000 -RA BKN013
BECMG 1620/1622 CAVOK
ATIS : +33 5 62 74 66 36



MET'MAP, your aeronautical weather chart ! - Copyright ORBIFLY December 2007 - Disclaimer

ORBIFLY MET'MAP TEAM :

Programming & Development : Alexandra Zaïnal
Concept & original design : Baudouin d'Aumeries
Assistance for programming : Marc-Olivier Méhu
Technical & hardware support : Manuel Goepfert

Contact : metmap@orbifly.com




SOURCES & CREDITS :

   NOAA